Main page
METAR-TAF:

METAR-TAF

Airports :

Eureka, Nevada, United States

latitude: 39-36-05N, longitude: 116-00-20W, elevation: 5943 ft

Current weather observation

The report was made 17 minutes ago, at 21:53 UTC
Wind 9 mph from the Northwest with gusts up to 18 mph
Temperature 28°F
Humidity 74%
Pressure 29.64 in. Hg

METAR: KP68 022153Z AUTO 32008G16KT M02/M06 A2964 RMK AO1 PK WND 26026/2102 SLP023 T10171061

Time: 14:10 (22:10 UTC)


TAF: missing

Weather observations and forecasts of more than 4000 airports (METAR and TAF reports).

The available stations are represented by yellow and red dots on the map.

Hover mouse over dot to see the name of the station.

Then click to see weather observations and forecasts.

To change the map : click on the green buttons with a black cross to zoom in, on the green button with a dash to zoom out, or on the green arrows for adjacent maps.


METAR-TAF: